createdAt,value
2022-10-10T00:00:43.918Z,7.44
2022-10-10T00:02:00.647Z,7.43
2022-10-10T00:03:17.036Z,7.40
2022-10-10T00:04:33.417Z,7.37
2022-10-10T00:05:49.801Z,7.33
2022-10-10T00:07:07.664Z,7.26
2022-10-10T00:08:24.315Z,7.26
2022-10-10T00:09:40.701Z,7.21
2022-10-10T00:10:57.055Z,7.24
2022-10-10T00:12:13.481Z,7.21
2022-10-10T00:13:29.855Z,7.18
2022-10-10T00:14:46.508Z,7.19
2022-10-10T00:16:04.316Z,7.18
2022-10-10T00:17:20.746Z,7.21
2022-10-10T00:18:37.117Z,7.21
2022-10-10T00:19:53.587Z,7.19
2022-10-10T00:21:10.228Z,7.19
2022-10-10T00:22:26.608Z,7.16
2022-10-10T00:23:44.430Z,7.15
2022-10-10T00:25:00.846Z,7.13
2022-10-10T00:26:19.272Z,7.13
2022-10-10T00:27:37.448Z,7.13
2022-10-10T00:28:53.817Z,7.11
2022-10-10T00:30:10.211Z,7.10
2022-10-10T00:31:26.572Z,7.13
2022-10-10T00:32:44.520Z,7.08
2022-10-10T00:34:01.153Z,7.11
2022-10-10T00:35:17.548Z,7.08
2022-10-10T00:36:35.410Z,7.07
2022-10-10T00:37:52.662Z,7.06
2022-10-10T00:39:10.479Z,7.06
2022-10-10T00:40:27.141Z,7.04
2022-10-10T00:41:43.558Z,7.03
2022-10-10T00:43:01.418Z,7.01
2022-10-10T00:44:17.820Z,7.00
2022-10-10T00:45:35.662Z,6.99
2022-10-10T00:46:53.261Z,6.96
2022-10-10T00:48:09.653Z,6.96
2022-10-10T00:49:27.522Z,6.91
2022-10-10T00:50:43.922Z,6.83
2022-10-10T00:52:01.734Z,6.82
2022-10-10T00:53:18.442Z,6.85
2022-10-10T00:54:34.865Z,6.82
2022-10-10T00:55:53.220Z,6.83
2022-10-10T00:57:09.582Z,6.82
2022-10-10T00:58:26.002Z,6.81
2022-10-10T00:59:42.655Z,6.79
2022-10-10T01:00:59.092Z,6.74
2022-10-10T01:02:15.534Z,6.73
2022-10-10T01:03:31.926Z,6.68
2022-10-10T01:04:48.298Z,6.71
2022-10-10T01:06:04.950Z,6.70
2022-10-10T01:07:21.344Z,6.68
2022-10-10T01:08:40.079Z,6.65
2022-10-10T01:09:56.485Z,6.65
2022-10-10T01:11:13.207Z,6.63
2022-10-10T01:12:29.859Z,6.65
2022-10-10T01:13:46.245Z,6.57
2022-10-10T01:15:02.617Z,6.56
2022-10-10T01:16:19.094Z,6.55
2022-10-10T01:17:36.416Z,6.55
2022-10-10T01:18:53.068Z,6.53
2022-10-10T01:20:09.487Z,6.49
2022-10-10T01:21:25.902Z,6.46
2022-10-10T01:22:42.258Z,6.47
2022-10-10T01:24:00.101Z,6.47
2022-10-10T01:25:16.728Z,6.47
2022-10-10T01:26:34.673Z,6.45
2022-10-10T01:27:52.476Z,6.49
2022-10-10T01:29:10.309Z,6.50
2022-10-10T01:30:26.703Z,6.50
2022-10-10T01:31:43.342Z,6.46
2022-10-10T01:32:59.699Z,6.46
2022-10-10T01:34:16.087Z,6.49
2022-10-10T01:35:33.929Z,6.47
2022-10-10T01:36:50.320Z,6.52
2022-10-10T01:38:06.971Z,6.50
2022-10-10T01:39:23.450Z,6.52
2022-10-10T01:40:39.834Z,6.52
2022-10-10T01:41:57.670Z,6.55
2022-10-10T01:43:14.080Z,6.55
2022-10-10T01:44:32.232Z,6.53
2022-10-10T01:45:48.601Z,6.55
2022-10-10T01:47:05.081Z,6.55
2022-10-10T01:48:22.895Z,6.57
2022-10-10T01:49:40.762Z,6.63
2022-10-10T01:50:57.391Z,6.60
2022-10-10T01:52:13.782Z,6.61
2022-10-10T01:53:30.151Z,6.57
2022-10-10T01:54:46.554Z,6.63
2022-10-10T01:56:02.934Z,6.63
2022-10-10T01:57:19.593Z,6.64
2022-10-10T01:58:37.425Z,6.61
2022-10-10T01:59:53.835Z,6.63
2022-10-10T02:01:10.246Z,6.65
2022-10-10T02:02:26.615Z,6.64
2022-10-10T02:03:43.236Z,6.65
2022-10-10T02:04:59.676Z,6.67
2022-10-10T02:06:16.034Z,6.67
2022-10-10T02:07:32.436Z,6.68
2022-10-10T02:08:48.804Z,6.65
2022-10-10T02:10:05.499Z,6.67
2022-10-10T02:11:23.319Z,6.70
2022-10-10T02:12:39.708Z,6.67
2022-10-10T02:13:56.113Z,6.70
2022-10-10T02:15:13.945Z,6.70
2022-10-10T02:16:31.538Z,6.73
2022-10-10T02:17:47.928Z,6.73
2022-10-10T02:19:05.777Z,6.74
2022-10-10T02:20:23.614Z,6.78
2022-10-10T02:21:39.986Z,6.75
2022-10-10T02:22:56.644Z,6.78
2022-10-10T02:24:13.041Z,6.79
2022-10-10T02:25:29.436Z,6.81
2022-10-10T02:26:45.817Z,6.81
2022-10-10T02:28:03.648Z,6.83
2022-10-10T02:29:20.347Z,6.86
2022-10-10T02:30:37.668Z,6.91
2022-10-10T02:31:54.029Z,6.97
2022-10-10T02:33:10.420Z,6.93
2022-10-10T02:34:28.271Z,7.00
2022-10-10T02:35:44.921Z,7.00
2022-10-10T02:37:01.381Z,7.04
2022-10-10T02:38:17.759Z,7.10
2022-10-10T02:39:35.601Z,7.15
2022-10-10T02:40:53.810Z,7.13
2022-10-10T02:42:10.451Z,7.16
2022-10-10T02:43:28.280Z,7.18
2022-10-10T02:44:44.679Z,7.19
2022-10-10T02:46:01.097Z,7.19
2022-10-10T02:47:17.444Z,7.18
2022-10-10T02:48:34.119Z,7.19
2022-10-10T02:49:50.513Z,7.18
2022-10-10T02:51:08.353Z,7.21
2022-10-10T02:52:24.712Z,7.22
2022-10-10T02:53:41.124Z,7.22
2022-10-10T02:54:57.796Z,7.24
2022-10-10T02:56:14.307Z,7.24
2022-10-10T02:57:31.633Z,7.21
2022-10-10T02:58:48.033Z,7.21
2022-10-10T03:00:05.875Z,7.22
2022-10-10T03:01:22.579Z,7.22
2022-10-10T03:02:38.976Z,7.24
2022-10-10T03:03:55.375Z,7.22
2022-10-10T03:05:11.755Z,7.24
2022-10-10T03:06:28.144Z,7.25
2022-10-10T03:07:44.794Z,7.22
2022-10-10T03:09:01.215Z,7.26
2022-10-10T03:10:17.575Z,7.25
2022-10-10T03:11:33.957Z,7.25
2022-10-10T03:12:50.611Z,7.25
2022-10-10T03:14:07.108Z,7.26
2022-10-10T03:15:23.497Z,7.25
2022-10-10T03:16:39.867Z,7.28
2022-10-10T03:17:56.236Z,7.31
2022-10-10T03:19:12.649Z,7.33
2022-10-10T03:20:29.288Z,7.33
2022-10-10T03:21:45.676Z,7.34
2022-10-10T03:23:03.501Z,7.31
2022-10-10T03:24:21.377Z,7.36
2022-10-10T03:25:37.778Z,7.36
2022-10-10T03:26:54.427Z,7.37
2022-10-10T03:28:10.839Z,7.34
2022-10-10T03:29:28.679Z,7.34
2022-10-10T03:30:45.142Z,7.37
2022-10-10T03:32:01.528Z,7.39
2022-10-10T03:33:18.200Z,7.44
2022-10-10T03:34:34.587Z,7.46
2022-10-10T03:35:52.472Z,7.44
2022-10-10T03:37:10.319Z,7.46
2022-10-10T03:38:26.692Z,7.46
2022-10-10T03:39:43.362Z,7.47
2022-10-10T03:40:59.760Z,7.44
2022-10-10T03:42:17.590Z,7.46
2022-10-10T03:43:35.409Z,7.46
2022-10-10T03:44:53.271Z,7.44
2022-10-10T03:46:15.775Z,7.44
2022-10-10T03:47:34.084Z,7.43
2022-10-10T03:48:51.942Z,7.44
2022-10-10T03:50:08.322Z,7.44
2022-10-10T03:51:24.692Z,7.42
2022-10-10T03:52:41.354Z,7.44
2022-10-10T03:53:57.756Z,7.43
2022-10-10T03:55:15.584Z,7.47
2022-10-10T03:56:31.955Z,7.47
2022-10-10T03:57:48.347Z,7.47
2022-10-10T03:59:05.016Z,7.50
2022-10-10T04:00:22.859Z,7.54
2022-10-10T04:01:39.294Z,7.55
2022-10-10T04:02:55.706Z,7.55
2022-10-10T04:04:12.074Z,7.58
2022-10-10T04:05:28.780Z,7.62
2022-10-10T04:06:46.611Z,7.62
2022-10-10T04:08:04.476Z,7.66
2022-10-10T04:09:20.847Z,7.69
2022-10-10T04:10:37.249Z,7.71
2022-10-10T04:11:55.386Z,7.74
2022-10-10T04:13:13.247Z,7.74
2022-10-10T04:14:29.627Z,7.74
2022-10-10T04:15:47.468Z,7.83
2022-10-10T04:17:05.326Z,7.88
2022-10-10T04:18:21.708Z,7.94
2022-10-10T04:19:38.090Z,7.98
2022-10-10T04:20:55.918Z,8.06
2022-10-10T04:22:13.881Z,8.19
2022-10-10T04:23:31.998Z,8.24
2022-10-10T04:24:49.831Z,8.29
2022-10-10T04:26:07.666Z,8.32
2022-10-10T04:27:25.590Z,8.37
2022-10-10T04:28:43.508Z,8.42
2022-10-10T04:30:01.620Z,8.52
2022-10-10T04:31:19.510Z,8.67
2022-10-10T04:32:37.370Z,8.72
2022-10-10T04:33:55.232Z,8.85
2022-10-10T04:35:12.592Z,8.90
2022-10-10T04:36:30.702Z,9.03
2022-10-10T04:37:48.521Z,9.11
2022-10-10T04:39:06.403Z,9.14
2022-10-10T04:40:26.811Z,9.22
2022-10-10T04:41:44.825Z,9.30
2022-10-10T04:43:01.492Z,9.40
2022-10-10T04:44:19.343Z,9.54
2022-10-10T04:45:37.864Z,9.63
2022-10-10T04:46:55.224Z,9.66
2022-10-10T04:48:13.096Z,9.67
2022-10-10T04:49:30.948Z,9.69
2022-10-10T04:50:48.814Z,9.73
2022-10-10T04:52:06.648Z,9.77
2022-10-10T04:53:24.505Z,9.80
2022-10-10T04:54:42.678Z,9.83
2022-10-10T04:56:00.530Z,9.91
2022-10-10T04:57:18.398Z,9.98
2022-10-10T04:58:36.265Z,10.02
2022-10-10T04:59:54.147Z,10.06
2022-10-10T05:01:12.343Z,10.12
2022-10-10T05:02:30.177Z,10.20
2022-10-10T05:03:48.527Z,10.27
2022-10-10T05:05:06.409Z,10.31
2022-10-10T05:06:24.279Z,10.36
2022-10-10T05:07:42.129Z,10.38
2022-10-10T05:09:00.046Z,10.41
2022-10-10T05:10:17.869Z,10.41
2022-10-10T05:11:35.711Z,10.46
2022-10-10T05:12:53.965Z,10.49
2022-10-10T05:14:12.805Z,10.48
2022-10-10T05:15:30.708Z,10.48
2022-10-10T05:16:48.800Z,10.55
2022-10-10T05:18:06.664Z,10.54
2022-10-10T05:19:23.103Z,10.61
2022-10-10T05:20:41.727Z,10.62
2022-10-10T05:21:59.593Z,10.64
2022-10-10T05:23:17.952Z,10.70
2022-10-10T05:24:35.272Z,10.75
2022-10-10T05:25:52.631Z,10.76
2022-10-10T05:27:10.800Z,10.76
2022-10-10T05:28:28.701Z,10.79
2022-10-10T05:29:46.109Z,10.76
2022-10-10T05:31:03.945Z,10.82
2022-10-10T05:32:21.834Z,10.80
2022-10-10T05:33:39.224Z,10.85
2022-10-10T05:34:56.562Z,10.87
2022-10-10T05:36:13.895Z,10.91
2022-10-10T05:37:31.934Z,10.91
2022-10-10T05:38:49.859Z,10.94
2022-10-10T05:40:07.707Z,10.95
2022-10-10T05:41:26.499Z,10.98
2022-10-10T05:42:44.398Z,10.94
2022-10-10T05:44:02.237Z,10.98
2022-10-10T05:45:18.741Z,10.95
2022-10-10T05:46:36.600Z,11.00
2022-10-10T05:47:54.499Z,11.00
2022-10-10T05:49:12.603Z,11.01
2022-10-10T05:50:30.472Z,11.01
2022-10-10T05:51:46.892Z,11.03
2022-10-10T05:53:04.879Z,11.03
2022-10-10T05:54:22.709Z,11.05
2022-10-10T05:55:40.591Z,11.05
2022-10-10T05:56:58.431Z,11.08
2022-10-10T05:58:15.830Z,11.11
2022-10-10T05:59:33.691Z,11.12
2022-10-10T06:00:52.358Z,11.12
2022-10-10T06:02:10.722Z,11.13
2022-10-10T06:03:28.612Z,11.16
2022-10-10T06:04:46.982Z,11.18
2022-10-10T06:06:07.024Z,11.16
2022-10-10T06:07:32.239Z,11.19
2022-10-10T06:08:49.143Z,11.22
2022-10-10T06:10:06.963Z,11.22
2022-10-10T06:11:24.827Z,11.27
2022-10-10T06:12:42.964Z,11.25
2022-10-10T06:14:00.854Z,11.25
2022-10-10T06:15:18.205Z,11.30
2022-10-10T06:16:36.104Z,11.34
2022-10-10T06:17:53.435Z,11.41
2022-10-10T06:19:14.821Z,11.46
2022-10-10T06:20:33.526Z,11.41
2022-10-10T06:21:50.417Z,11.52
2022-10-10T06:23:09.108Z,11.51
2022-10-10T06:24:27.691Z,11.55
2022-10-10T06:25:46.080Z,11.55
2022-10-10T06:27:04.476Z,11.56
2022-10-10T06:28:22.427Z,11.61
2022-10-10T06:29:40.251Z,11.59
2022-10-10T06:30:58.895Z,11.64
2022-10-10T06:32:17.305Z,11.64
2022-10-10T06:33:34.639Z,11.70
2022-10-10T06:34:52.018Z,11.71
2022-10-10T06:36:09.371Z,11.76
2022-10-10T06:37:26.769Z,11.85
2022-10-10T06:38:44.605Z,11.85
2022-10-10T06:40:03.844Z,11.95
2022-10-10T06:41:22.104Z,12.00
2022-10-10T06:42:40.745Z,12.05
2022-10-10T06:43:58.598Z,12.08
2022-10-10T06:45:16.501Z,12.13
2022-10-10T06:46:34.965Z,12.15
2022-10-10T06:47:52.843Z,12.21
2022-10-10T06:49:11.197Z,12.23
2022-10-10T06:50:29.044Z,12.25
2022-10-10T06:51:46.930Z,12.32
2022-10-10T06:53:04.814Z,12.32
2022-10-10T06:54:26.192Z,12.36
2022-10-10T06:55:47.566Z,12.41
2022-10-10T06:57:13.919Z,12.43
2022-10-10T06:58:34.693Z,12.46
2022-10-10T06:59:52.303Z,12.48
2022-10-10T07:01:12.569Z,12.51
2022-10-10T07:02:31.761Z,12.54
2022-10-10T07:03:49.735Z,12.59
2022-10-10T07:05:07.825Z,12.62
2022-10-10T07:06:25.255Z,12.63
2022-10-10T07:07:43.947Z,12.66
2022-10-10T07:09:00.422Z,12.72
2022-10-10T07:10:17.603Z,12.79
2022-10-10T07:11:35.989Z,12.80
2022-10-10T07:12:52.520Z,12.84
2022-10-10T07:14:10.190Z,12.90
2022-10-10T07:15:27.702Z,12.91
2022-10-10T07:16:45.840Z,12.98
2022-10-10T07:18:03.517Z,13.02
2022-10-10T07:19:22.421Z,13.08
2022-10-10T07:20:41.120Z,13.09
2022-10-10T07:23:51.983Z,13.21
2022-10-10T07:25:10.148Z,13.23
2022-10-10T07:26:27.075Z,13.26
2022-10-10T07:27:44.420Z,13.30
2022-10-10T07:29:01.795Z,13.32
2022-10-10T07:30:19.127Z,13.40
2022-10-10T07:31:39.449Z,13.43
2022-10-10T07:32:57.527Z,13.46
2022-10-10T07:34:15.493Z,13.51
2022-10-10T07:35:33.319Z,13.57
2022-10-10T07:36:50.759Z,13.63
2022-10-10T07:38:09.389Z,13.64
2022-10-10T07:39:26.842Z,13.75
2022-10-10T07:40:44.699Z,13.79
2022-10-10T07:42:02.582Z,13.82
2022-10-10T07:43:20.410Z,13.86
2022-10-10T07:44:37.783Z,13.86
2022-10-10T07:45:56.174Z,13.91
2022-10-10T07:47:13.474Z,13.96
2022-10-10T07:48:31.352Z,14.04
2022-10-10T07:49:48.761Z,14.13
2022-10-10T07:51:06.632Z,14.19
2022-10-10T07:52:24.482Z,14.26
2022-10-10T07:53:41.844Z,14.33
2022-10-10T07:54:59.743Z,14.38
2022-10-10T07:56:17.388Z,14.45
2022-10-10T07:57:35.242Z,14.59
2022-10-10T07:58:53.596Z,14.74
2022-10-10T08:00:11.472Z,14.92
2022-10-10T08:01:30.178Z,15.05
2022-10-10T08:02:48.089Z,15.22
2022-10-10T08:04:05.937Z,15.33
2022-10-10T08:05:24.317Z,15.54
2022-10-10T08:06:42.189Z,15.69
2022-10-10T08:08:00.049Z,15.81
2022-10-10T08:09:19.437Z,15.95
2022-10-10T08:10:36.781Z,15.99
2022-10-10T08:11:54.138Z,16.09
2022-10-10T08:13:12.538Z,16.26
2022-10-10T08:14:30.993Z,16.43
2022-10-10T08:15:48.839Z,16.58
2022-10-10T08:17:07.170Z,16.73
2022-10-10T08:18:25.842Z,16.67
2022-10-10T08:19:43.724Z,16.77
2022-10-10T08:21:01.079Z,16.79
2022-10-10T08:22:18.581Z,16.94
2022-10-10T08:23:36.417Z,17.04
2022-10-10T08:24:54.134Z,17.14
2022-10-10T08:26:11.994Z,17.31
2022-10-10T08:27:29.359Z,17.43
2022-10-10T08:28:49.180Z,17.54
2022-10-10T08:30:07.123Z,17.66
2022-10-10T08:31:25.017Z,17.83
2022-10-10T08:32:42.895Z,17.94
2022-10-10T08:34:01.275Z,18.08
2022-10-10T08:35:19.146Z,18.17
2022-10-10T08:36:37.209Z,18.24
2022-10-10T08:37:55.036Z,18.31
2022-10-10T08:39:12.420Z,18.49
2022-10-10T08:40:30.780Z,18.48
2022-10-10T08:41:48.948Z,18.60
2022-10-10T08:43:06.299Z,18.66
2022-10-10T08:44:24.728Z,18.60
2022-10-10T08:45:43.078Z,18.63
2022-10-10T08:47:03.064Z,18.70
2022-10-10T08:48:21.715Z,18.82
2022-10-10T08:49:40.095Z,18.98
2022-10-10T08:50:57.482Z,19.00
2022-10-10T08:52:17.191Z,19.13
2022-10-10T08:53:35.400Z,19.22
2022-10-10T08:54:58.292Z,19.20
2022-10-10T08:56:15.955Z,19.39
2022-10-10T08:57:33.407Z,19.68
2022-10-10T08:58:51.305Z,19.82
2022-10-10T09:00:16.317Z,20.04
2022-10-10T09:01:35.478Z,20.29
2022-10-10T09:02:57.240Z,20.46
2022-10-10T09:04:14.807Z,20.65
2022-10-10T09:05:33.388Z,20.88
2022-10-10T09:06:52.657Z,21.11
2022-10-10T09:08:12.962Z,21.35
2022-10-10T09:09:32.582Z,21.50
2022-10-10T09:10:52.859Z,21.67
2022-10-10T09:12:10.817Z,21.66
2022-10-10T09:13:32.686Z,21.66
2022-10-10T09:14:53.180Z,21.62
2022-10-10T09:16:12.391Z,21.55
2022-10-10T09:18:53.660Z,21.51
2022-10-10T09:20:17.612Z,21.58
2022-10-10T09:21:37.808Z,21.41
2022-10-10T09:23:02.032Z,21.28
2022-10-10T09:24:22.930Z,21.23
2022-10-10T09:25:53.913Z,21.37
2022-10-10T09:27:13.975Z,21.16
2022-10-10T09:28:37.733Z,21.19
2022-10-10T09:29:58.850Z,21.23
2022-10-10T09:31:16.626Z,21.28
2022-10-10T09:34:29.384Z,21.91
2022-10-10T09:37:47.285Z,22.16
2022-10-10T09:39:04.910Z,22.48
2022-10-10T09:40:23.919Z,22.55
2022-10-10T09:41:41.491Z,22.68
2022-10-10T09:43:10.867Z,22.74
2022-10-10T09:44:31.985Z,22.85
2022-10-10T09:47:41.456Z,22.66
2022-10-10T09:49:06.387Z,22.70
2022-10-10T09:50:30.078Z,22.70
2022-10-10T09:51:48.389Z,22.64
2022-10-10T09:53:06.314Z,22.92
2022-10-10T09:54:27.407Z,23.04
2022-10-10T09:55:51.273Z,23.28
2022-10-10T09:57:13.235Z,23.41
2022-10-10T09:58:30.814Z,23.36
2022-10-10T09:59:49.373Z,23.36
2022-10-10T10:01:09.122Z,23.59
2022-10-10T10:02:31.919Z,23.74
2022-10-10T10:05:46.409Z,23.92
2022-10-10T10:07:06.177Z,24.22
2022-10-10T10:08:24.141Z,24.44
2022-10-10T10:09:50.538Z,24.33
2022-10-10T10:11:12.404Z,24.33
2022-10-10T10:12:36.788Z,24.52
2022-10-10T10:13:53.395Z,24.94
2022-10-10T10:15:11.995Z,25.11
2022-10-10T10:18:20.828Z,24.81
2022-10-10T10:19:39.375Z,24.85
2022-10-10T10:20:58.477Z,25.09
2022-10-10T10:22:26.381Z,25.27
2022-10-10T10:23:47.330Z,25.23
2022-10-10T10:25:07.677Z,25.04
2022-10-10T10:26:31.276Z,24.65
2022-10-10T10:27:51.608Z,24.48
2022-10-10T10:29:15.653Z,24.53
2022-10-10T10:30:43.072Z,24.43
2022-10-10T10:32:00.412Z,24.55
2022-10-10T10:33:18.282Z,24.82
2022-10-10T10:34:36.169Z,24.86
2022-10-10T10:35:53.774Z,24.82
2022-10-10T10:37:14.863Z,24.94
2022-10-10T10:38:32.967Z,24.82
2022-10-10T10:39:51.732Z,24.94
2022-10-10T10:41:10.868Z,24.96
2022-10-10T10:42:29.217Z,24.74
2022-10-10T10:43:47.072Z,24.66
2022-10-10T10:45:04.515Z,24.56
2022-10-10T10:46:20.997Z,24.45
2022-10-10T10:47:38.312Z,24.38
2022-10-10T10:48:56.140Z,24.59
2022-10-10T10:50:14.444Z,24.68
2022-10-10T10:51:34.405Z,24.84
2022-10-10T10:52:52.161Z,24.74
2022-10-10T10:54:10.064Z,24.47
2022-10-10T10:55:29.113Z,24.16
2022-10-10T10:56:48.093Z,24.04
2022-10-10T10:58:48.828Z,24.33
2022-10-10T11:00:22.180Z,24.33
2022-10-10T11:01:33.698Z,24.23
2022-10-10T11:02:26.265Z,24.29
2022-10-10T11:05:20.537Z,24.38
2022-10-10T11:05:22.032Z,24.08
2022-10-10T11:06:24.564Z,23.86
2022-10-10T11:07:45.602Z,24.00
2022-10-10T11:09:04.084Z,24.21
2022-10-10T11:10:22.923Z,24.31
2022-10-10T11:11:41.512Z,24.45
2022-10-10T11:12:58.914Z,24.81
2022-10-10T11:14:17.775Z,25.03
2022-10-10T11:16:01.205Z,25.23
2022-10-10T11:16:57.602Z,25.23
2022-10-10T11:18:15.969Z,25.23
2022-10-10T11:19:35.302Z,25.22
2022-10-10T11:20:52.779Z,25.21
2022-10-10T11:22:11.224Z,24.90
2022-10-10T11:23:29.748Z,24.60
2022-10-10T11:24:47.674Z,24.53
2022-10-10T11:26:06.858Z,24.59
2022-10-10T11:27:23.472Z,24.28
2022-10-10T11:28:40.578Z,24.11
2022-10-10T11:30:00.710Z,24.13
2022-10-10T11:31:18.741Z,24.34
2022-10-10T11:34:26.706Z,24.13
2022-10-10T11:35:44.576Z,24.01
2022-10-10T11:37:01.177Z,23.89
2022-10-10T11:38:18.891Z,23.86
2022-10-10T11:39:36.465Z,23.86
2022-10-10T11:40:57.963Z,23.81
2022-10-10T11:42:15.744Z,23.81
2022-10-10T11:43:33.328Z,23.60
2022-10-10T11:44:51.424Z,23.42
2022-10-10T11:46:09.044Z,23.39
2022-10-10T11:47:27.996Z,23.45
2022-10-10T11:48:46.874Z,23.46
2022-10-10T11:50:08.298Z,23.33
2022-10-10T11:51:29.497Z,23.11
2022-10-10T11:52:47.205Z,22.99
2022-10-10T11:54:03.764Z,22.86
2022-10-10T11:55:21.648Z,22.80
2022-10-10T11:56:39.566Z,22.93
2022-10-10T11:58:02.692Z,23.14
2022-10-10T11:59:20.196Z,23.21
2022-10-10T12:00:37.678Z,23.31
2022-10-10T12:01:55.118Z,23.42
2022-10-10T12:03:12.747Z,23.34
2022-10-10T12:04:36.325Z,23.39
2022-10-10T12:05:54.320Z,23.28
2022-10-10T12:07:12.959Z,23.22
2022-10-10T12:25:57.705Z,22.68
2022-10-10T12:31:12.607Z,22.68
2022-10-10T12:53:19.273Z,22.68
2022-10-10T13:01:04.643Z,22.22
2022-10-10T13:04:29.928Z,22.11
2022-10-10T13:13:23.029Z,22.18
2022-10-10T13:20:17.019Z,22.31
2022-10-10T13:26:57.022Z,22.12
2022-10-10T13:32:53.653Z,21.73
2022-10-10T13:36:10.574Z,21.73
2022-10-10T13:43:38.599Z,21.88
2022-10-10T13:57:02.657Z,21.38
2022-10-10T13:59:55.964Z,21.18
2022-10-10T14:56:16.129Z,20.52
2022-10-10T17:01:22.117Z,16.72
2022-10-10T19:36:28.764Z,13.14
